createdAt,value
2019-03-21T00:01:34.592Z,3.40
2019-03-21T00:05:40.215Z,4.70
2019-03-21T00:10:18.092Z,3.30
2019-03-21T00:14:45.349Z,4.60
2019-03-21T00:18:50.790Z,3.30
2019-03-21T00:22:56.286Z,3.20
2019-03-21T00:27:01.827Z,3.40
2019-03-21T00:31:07.397Z,4.40
2019-03-21T00:35:12.814Z,3.13
2019-03-21T00:39:18.306Z,3.97
2019-03-21T00:43:23.862Z,3.37
2019-03-21T00:47:29.311Z,2.37
2019-03-21T00:51:36.489Z,4.00
2019-03-21T00:55:44.382Z,3.90
2019-03-21T00:59:50.481Z,2.73
2019-03-21T01:03:57.290Z,3.73
2019-03-21T01:08:03.506Z,3.17
2019-03-21T01:12:10.618Z,4.77
2019-03-21T01:16:21.679Z,2.90
2019-03-21T01:20:28.835Z,3.10
2019-03-21T01:24:34.398Z,2.50
2019-03-21T01:28:39.834Z,3.17
2019-03-21T01:32:45.425Z,4.10
2019-03-21T01:36:53.118Z,3.67
2019-03-21T01:40:59.974Z,3.70
2019-03-21T01:45:13.684Z,3.07
2019-03-21T01:49:24.260Z,3.13
2019-03-21T01:53:37.658Z,2.60
2019-03-21T01:57:53.289Z,2.63
2019-03-21T02:02:08.797Z,2.50
2019-03-21T02:06:20.579Z,3.03
2019-03-21T02:10:33.577Z,3.80
2019-03-21T02:14:52.146Z,3.90
2019-03-21T02:18:58.525Z,2.47
2019-03-21T02:23:09.499Z,2.63
2019-03-21T02:27:15.463Z,2.43
2019-03-21T02:31:21.057Z,2.20
2019-03-21T02:35:26.512Z,2.20
2019-03-21T02:39:32.390Z,3.30
2019-03-21T02:43:38.226Z,1.83
2019-03-21T02:47:43.699Z,2.07
2019-03-21T02:51:49.279Z,1.93
2019-03-21T02:55:54.859Z,3.00
2019-03-21T03:00:00.442Z,2.53
2019-03-21T03:04:06.241Z,3.00
2019-03-21T03:08:11.699Z,3.27
2019-03-21T03:12:17.275Z,2.63
2019-03-21T03:16:23.070Z,2.70
2019-03-21T03:20:47.221Z,2.47
2019-03-21T03:24:52.689Z,4.80
2019-03-21T03:28:58.221Z,4.60
2019-03-21T03:33:03.647Z,4.33
2019-03-21T03:37:09.242Z,3.30
2019-03-21T03:41:14.785Z,4.07
2019-03-21T03:45:36.655Z,1.93
2019-03-21T03:49:30.157Z,2.20
2019-03-21T03:53:35.782Z,2.47
2019-03-21T03:57:41.405Z,3.23
2019-03-21T04:01:46.964Z,2.70
2019-03-21T04:05:52.513Z,3.87
2019-03-21T04:09:58.186Z,2.60
2019-03-21T04:14:03.917Z,3.10
2019-03-21T04:18:09.355Z,2.83
2019-03-21T04:22:14.790Z,3.00
2019-03-21T04:26:24.099Z,1.97
2019-03-21T04:30:29.561Z,2.60
2019-03-21T04:34:41.897Z,2.93
2019-03-21T04:38:47.596Z,2.07
2019-03-21T04:42:53.144Z,2.90
2019-03-21T04:46:58.586Z,2.73
2019-03-21T04:51:04.000Z,2.37
2019-03-21T04:55:10.799Z,3.27
2019-03-21T04:59:16.256Z,2.03
2019-03-21T05:03:22.731Z,2.40
2019-03-21T05:07:28.499Z,5.10
2019-03-21T05:11:34.593Z,5.60
2019-03-21T05:15:41.101Z,3.60
2019-03-21T05:19:46.875Z,3.50
2019-03-21T05:23:52.672Z,2.73
2019-03-21T05:27:58.326Z,3.27
2019-03-21T05:32:04.235Z,3.30
2019-03-21T05:36:10.134Z,3.47
2019-03-21T05:40:16.431Z,4.83
2019-03-21T05:44:33.178Z,4.77
2019-03-21T05:48:38.920Z,3.93
2019-03-21T05:52:44.888Z,4.30
2019-03-21T05:56:50.734Z,4.47
2019-03-21T06:00:56.637Z,3.83
2019-03-21T06:05:19.234Z,3.63
2019-03-21T06:10:09.572Z,3.90
2019-03-21T06:14:54.560Z,3.80
2019-03-21T06:19:17.935Z,2.97
2019-03-21T06:23:54.591Z,4.10
2019-03-21T06:28:00.717Z,4.97
2019-03-21T06:32:06.389Z,4.63
2019-03-21T06:36:11.814Z,3.10
2019-03-21T06:40:18.104Z,4.03
2019-03-21T06:44:23.744Z,4.03
2019-03-21T06:48:29.186Z,4.90
2019-03-21T06:52:34.641Z,4.17
2019-03-21T06:56:40.281Z,4.20
2019-03-21T07:00:45.710Z,4.20
2019-03-21T07:04:51.439Z,3.53
2019-03-21T07:08:56.919Z,4.20
2019-03-21T07:13:02.395Z,3.50
2019-03-21T07:17:08.520Z,3.67
2019-03-21T07:21:13.997Z,3.23
2019-03-21T07:25:19.594Z,4.43
2019-03-21T07:29:25.215Z,3.77
2019-03-21T07:33:30.917Z,4.50
2019-03-21T07:37:36.594Z,3.90
2019-03-21T07:41:42.023Z,2.73
2019-03-21T07:45:48.124Z,3.57
2019-03-21T07:49:53.897Z,4.03
2019-03-21T07:53:59.752Z,2.83
2019-03-21T07:58:14.180Z,3.97
2019-03-21T08:02:24.814Z,2.40
2019-03-21T08:06:38.330Z,2.47
2019-03-21T08:10:44.760Z,3.80
2019-03-21T08:14:52.356Z,3.10
2019-03-21T08:18:58.354Z,2.50
2019-03-21T08:23:04.182Z,3.93
2019-03-21T08:27:10.039Z,3.80
2019-03-21T08:31:19.370Z,2.93
2019-03-21T08:35:24.825Z,3.10
2019-03-21T08:39:30.466Z,2.83
2019-03-21T08:43:35.967Z,2.47
2019-03-21T08:47:41.439Z,3.20
2019-03-21T08:51:46.899Z,2.80
2019-03-21T08:55:52.357Z,3.63
2019-03-21T08:59:58.089Z,2.93
2019-03-21T09:04:03.539Z,4.63
2019-03-21T09:08:09.023Z,3.40
2019-03-21T09:12:14.619Z,3.20
2019-03-21T09:16:20.142Z,3.60
2019-03-21T09:20:25.772Z,2.83
2019-03-21T09:24:31.371Z,2.53
2019-03-21T09:28:36.817Z,3.00
2019-03-21T09:32:42.353Z,3.30
2019-03-21T09:36:47.853Z,4.03
2019-03-21T09:40:53.525Z,4.80
2019-03-21T09:44:58.980Z,3.50
2019-03-21T09:49:04.758Z,3.37
2019-03-21T09:53:10.222Z,3.97
2019-03-21T09:57:22.984Z,3.10
2019-03-21T10:01:34.410Z,2.80
2019-03-21T10:05:40.544Z,3.33
2019-03-21T10:09:46.635Z,2.93
2019-03-21T10:13:52.435Z,4.10
2019-03-21T10:17:57.959Z,3.47
2019-03-21T10:22:03.479Z,3.30
2019-03-21T10:26:08.889Z,3.27
2019-03-21T10:30:20.093Z,3.53
2019-03-21T10:34:27.421Z,3.50
2019-03-21T10:38:32.849Z,2.80
2019-03-21T10:42:38.314Z,3.20
2019-03-21T10:46:43.752Z,3.40
2019-03-21T10:50:50.188Z,3.83
2019-03-21T10:54:55.817Z,3.30
2019-03-21T10:59:01.252Z,3.90
2019-03-21T11:03:07.420Z,2.77
2019-03-21T11:07:10.386Z,3.27
2019-03-21T11:11:15.814Z,3.53
2019-03-21T11:15:21.378Z,4.40
2019-03-21T11:19:27.221Z,4.50
2019-03-21T11:23:32.724Z,4.33
2019-03-21T11:27:38.156Z,4.03
2019-03-21T11:31:43.627Z,3.97
2019-03-21T11:35:49.102Z,4.23
2019-03-21T11:39:54.559Z,3.77
2019-03-21T11:44:00.028Z,3.70
2019-03-21T11:48:05.948Z,3.90
2019-03-21T11:52:18.070Z,3.70
2019-03-21T11:56:18.538Z,3.70
2019-03-21T12:00:24.221Z,3.27
2019-03-21T12:04:29.657Z,4.13
2019-03-21T12:08:35.211Z,4.17
2019-03-21T12:12:40.685Z,4.27
2019-03-21T12:16:46.284Z,3.73
2019-03-21T12:20:51.850Z,3.73
2019-03-21T12:24:57.349Z,3.87
2019-03-21T12:29:02.815Z,4.07
2019-03-21T12:33:09.006Z,5.03
2019-03-21T12:37:14.474Z,4.27
2019-03-21T12:41:20.262Z,4.70
2019-03-21T12:45:25.708Z,4.70
2019-03-21T12:49:31.178Z,3.90
2019-03-21T12:53:36.613Z,4.00
2019-03-21T12:57:45.758Z,4.70
2019-03-21T13:01:56.943Z,4.20
2019-03-21T13:06:02.520Z,4.80
2019-03-21T13:10:08.074Z,4.27
2019-03-21T13:14:13.586Z,4.60
2019-03-21T13:18:24.996Z,5.43
2019-03-21T13:22:37.591Z,4.37
2019-03-21T13:26:49.967Z,5.20
2019-03-21T13:30:55.722Z,5.47
2019-03-21T13:35:07.199Z,5.63
2019-03-21T13:39:17.388Z,4.70
2019-03-21T13:43:23.063Z,4.53
2019-03-21T13:47:28.524Z,5.00
2019-03-21T13:51:33.957Z,6.07
2019-03-21T13:55:39.402Z,4.70
2019-03-21T13:59:45.104Z,4.83
2019-03-21T14:03:56.962Z,5.00
2019-03-21T14:08:03.308Z,4.97
2019-03-21T14:12:08.795Z,5.37
2019-03-21T14:16:18.042Z,4.70
2019-03-21T14:20:30.893Z,5.30
2019-03-21T14:24:40.656Z,4.97
2019-03-21T14:28:51.514Z,4.80
2019-03-21T14:33:00.945Z,4.97
2019-03-21T14:37:08.514Z,5.03
2019-03-21T14:41:13.937Z,4.90
2019-03-21T14:45:20.732Z,5.90
2019-03-21T14:49:27.514Z,5.07
2019-03-21T14:53:33.162Z,6.23
2019-03-21T14:57:38.612Z,6.30
2019-03-21T15:01:44.039Z,5.53
2019-03-21T15:05:49.640Z,4.40
2019-03-21T15:09:55.104Z,5.60
2019-03-21T15:14:00.690Z,4.40
2019-03-21T15:18:06.288Z,5.50
2019-03-21T15:22:11.939Z,4.70
2019-03-21T15:26:17.373Z,4.13
2019-03-21T15:30:22.836Z,4.95
2019-03-21T15:34:28.491Z,5.60
2019-03-21T15:38:34.014Z,5.10
2019-03-21T15:42:40.057Z,5.20
2019-03-21T15:46:45.554Z,5.17
2019-03-21T15:50:51.111Z,4.30
2019-03-21T15:54:56.627Z,3.93
2019-03-21T15:59:02.127Z,4.62
2019-03-21T16:03:08.493Z,3.70
2019-03-21T16:07:15.037Z,3.90
2019-03-21T16:11:20.492Z,4.50
2019-03-21T16:15:26.024Z,3.87
2019-03-21T16:19:31.800Z,5.10
2019-03-21T16:23:37.264Z,4.70
2019-03-21T16:27:43.236Z,3.43
2019-03-21T16:31:48.827Z,3.73
2019-03-21T16:35:55.435Z,3.70
2019-03-21T16:40:01.034Z,3.63
2019-03-21T16:44:08.753Z,4.23
2019-03-21T16:48:20.111Z,3.23
2019-03-21T16:52:25.921Z,3.10
2019-03-21T16:56:31.598Z,3.00
2019-03-21T17:00:37.365Z,4.20
2019-03-21T17:04:46.131Z,3.53
2019-03-21T17:08:52.248Z,3.50
2019-03-21T17:12:59.423Z,3.50
2019-03-21T17:17:05.371Z,3.63
2019-03-21T17:21:10.895Z,3.60
2019-03-21T17:25:22.293Z,2.97
2019-03-21T17:29:28.902Z,3.63
2019-03-21T17:33:34.569Z,2.93
2019-03-21T17:37:40.028Z,3.33
2019-03-21T17:41:45.608Z,4.10
2019-03-21T17:45:51.084Z,3.00
2019-03-21T17:49:56.792Z,4.08
2019-03-21T17:54:02.322Z,3.00
2019-03-21T17:58:08.065Z,3.53
2019-03-21T18:02:13.891Z,3.80
2019-03-21T18:06:19.462Z,3.60
2019-03-21T18:10:30.166Z,4.30
2019-03-21T18:14:35.800Z,3.50
2019-03-21T18:18:41.591Z,3.63
2019-03-21T18:22:47.075Z,4.00
2019-03-21T18:26:52.884Z,4.40
2019-03-21T18:30:58.695Z,5.03
2019-03-21T18:35:04.359Z,4.83
2019-03-21T18:39:10.593Z,5.00
2019-03-21T18:43:16.427Z,5.53
2019-03-21T18:47:22.095Z,4.90
2019-03-21T18:51:28.313Z,5.23
2019-03-21T18:55:34.112Z,3.63
2019-03-21T18:59:39.789Z,5.87
2019-03-21T19:03:45.207Z,5.23
2019-03-21T19:07:51.020Z,4.67
2019-03-21T19:11:56.442Z,4.33
2019-03-21T19:16:01.870Z,5.70
2019-03-21T19:20:08.629Z,6.90
2019-03-21T19:24:14.495Z,5.30
2019-03-21T19:28:19.931Z,5.43
2019-03-21T19:32:25.460Z,5.23
2019-03-21T19:36:30.943Z,6.20
2019-03-21T19:40:36.471Z,5.00
2019-03-21T19:44:42.622Z,5.43
2019-03-21T19:48:50.656Z,5.97
2019-03-21T19:52:56.928Z,5.90
2019-03-21T19:57:02.704Z,5.40
2019-03-21T20:01:08.289Z,5.60
2019-03-21T20:05:14.239Z,5.13
2019-03-21T20:09:19.708Z,5.63
2019-03-21T20:13:25.239Z,5.03
2019-03-21T20:17:30.697Z,6.13
2019-03-21T20:21:47.308Z,4.87
2019-03-21T20:25:43.550Z,5.80
2019-03-21T20:29:49.051Z,5.93
2019-03-21T20:33:54.596Z,5.00
2019-03-21T20:38:00.063Z,4.47
2019-03-21T20:42:05.587Z,5.90
2019-03-21T20:46:11.179Z,5.70
2019-03-21T20:50:16.700Z,5.97
2019-03-21T20:54:22.295Z,6.13
2019-03-21T20:58:27.830Z,6.20
2019-03-21T21:02:33.383Z,5.10
2019-03-21T21:06:39.154Z,6.20
2019-03-21T21:10:44.596Z,4.60
2019-03-21T21:14:50.226Z,7.07
2019-03-21T21:18:55.678Z,6.20
2019-03-21T21:23:02.326Z,5.73
2019-03-21T21:27:12.850Z,7.17
2019-03-21T21:31:18.598Z,6.27
2019-03-21T21:35:24.104Z,6.83
2019-03-21T21:39:30.629Z,5.87
2019-03-21T21:43:36.104Z,6.07
2019-03-21T21:47:41.683Z,6.93
2019-03-21T21:51:47.107Z,5.77
2019-03-21T21:55:52.727Z,6.00
2019-03-21T21:59:58.167Z,8.00
2019-03-21T22:04:04.894Z,9.23
2019-03-21T22:08:10.901Z,6.27
2019-03-21T22:12:16.343Z,9.00
2019-03-21T22:16:21.803Z,6.80
2019-03-21T22:20:27.401Z,8.60
2019-03-21T22:24:32.862Z,6.30
2019-03-21T22:28:38.396Z,7.40
2019-03-21T22:32:43.962Z,7.53
2019-03-21T22:36:49.853Z,6.90
2019-03-21T22:40:55.317Z,6.70
2019-03-21T22:45:00.753Z,5.97
2019-03-21T22:49:06.322Z,7.13
2019-03-21T22:53:11.769Z,6.80
2019-03-21T22:57:17.434Z,6.03
2019-03-21T23:01:22.968Z,6.07
2019-03-21T23:05:28.570Z,6.90
2019-03-21T23:09:34.053Z,6.40
2019-03-21T23:13:40.701Z,6.30
2019-03-21T23:17:46.135Z,6.30
2019-03-21T23:21:51.826Z,4.40
2019-03-21T23:25:57.295Z,8.33
2019-03-21T23:30:02.716Z,5.57
2019-03-21T23:34:08.149Z,5.67
2019-03-21T23:38:13.631Z,5.37
2019-03-21T23:42:19.036Z,7.83
2019-03-21T23:46:24.569Z,7.30
2019-03-21T23:50:30.077Z,5.73
2019-03-21T23:54:35.532Z,5.70
2019-03-21T23:58:40.972Z,6.40
